Front Circassia — V7JX6 — position and weather

sailwx.info

Track history (hours):
 
Tides and Currents Weather Stations Pressure Air Temp Water Temp Dewpoint Dewpoint Depression Visibility Wind Speed Wind Dir Waves Ship Positions

Front Circassia

Last reported at 2016-May-27 19:09 UTC. Time now 2016-May-28 04:07 UTC.
Position N 29°53' E 122°13'.

Length 333 m; draft 11 m.

Type: Tanker. MMSI: 538002584.

Date/timePositionNaut miles runAvg speedWind from/ knotsBaromVisibWave heightAir tempDewpointWater temp
2016-May-27 19:09N 29°53' E 122°13'0 0.0
2016-May-27 10:24N 29°52' E 122°13'0 0.0
2016-May-27 09:18N 29°52' E 122°13'0 0.1
2016-May-27 04:24N 29°53' E 122°13'0 0.0
2016-May-26 14:18N 29°53' E 122°12'0 0.0
2016-May-26 02:24N 29°53' E 122°12'0 0.1
2016-May-26 00:24N 29°53' E 122°13'0 0.0
2016-May-25 22:18N 29°52' E 122°13'0 0.1
2016-May-25 21:24N 29°52' E 122°13'0 0.0
2016-May-25 07:24N 29°53' E 122°13'0 0.0
2016-May-25 06:24N 29°53' E 122°13'0 0.2
2016-May-25 04:30N 29°53' E 122°13'0 0.1
2016-May-24 23:18N 29°53' E 122°13'0 0.0
2016-May-24 21:18N 29°52' E 122°13'0 0.0
2016-May-24 20:18N 29°52' E 122°13'0 0.0
2016-May-24 19:24N 29°53' E 122°13'0 0.0
2016-May-24 18:30N 29°53' E 122°13'0 0.1
2016-May-24 15:24N 29°53' E 122°13'0 0.1
2016-May-24 13:12N 29°53' E 122°12'0 0.3
2016-May-24 12:24N 29°53' E 122°13'0 0.2
2016-May-24 11:24N 29°52' E 122°13'0 0.0
2016-May-24 09:30N 29°52' E 122°13'0 0.0
2016-May-24 07:18N 29°53' E 122°13'0 0.0
2016-May-24 06:12N 29°53' E 122°13'0 0.0
2016-May-24 05:30N 29°53' E 122°13'0 0.1
2016-May-24 02:30N 29°53' E 122°13'0 0.1
2016-May-23 23:05N 29°53' E 122°13'0 0.0
2016-May-23 20:29N 29°52' E 122°13'0 0.0
2016-May-23 19:30N 29°52' E 122°13'0 0.0
2016-May-23 18:23N 29°53' E 122°13'0 0.1
2016-May-23 17:12N 29°53' E 122°13'0 0.1
2016-May-23 14:12N 29°53' E 122°13'0 0.1
2016-May-23 11:29N 29°52' E 122°13'0 0.1
2016-May-23 10:11N 29°53' E 122°13'2 2.7
2016-May-23 09:32N 29°51' E 122°12'7 7.4
2016-May-23 08:33N 29°46' E 122°18'4 0.9
2016-May-23 04:22N 29°46' E 122°23'0 0.1
2016-May-23 02:31N 29°46' E 122°23'4 4.6
2016-May-23 01:33N 29°47' E 122°28'9 8.8
2016-May-23 00:31N 29°48' E 122°38'8 8.0
2016-May-22 23:32N 29°48' E 122°47'  
2016-May-20 17:27N 35°44' E 123°03'16 8.0
2016-May-20 15:28N 35°52' E 122°46'8 8.3
2016-May-20 14:33N 35°56' E 122°39'9 8.7
2016-May-20 13:33N 36°01' E 122°29'8 8.2
2016-May-20 12:33N 36°05' E 122°21'0 0.3
2016-May-20 11:15N 36°05' E 122°21'0 0.1
2016-May-20 09:09N 36°05' E 122°21'0 0.2
2016-May-20 08:33N 36°05' E 122°21'0 0.1
2016-May-20 07:09N 36°05' E 122°21'0 0.0
2016-May-18 12:32N 36°05' E 122°21'0 0.0
2016-May-18 10:14N 36°05' E 122°21'0 0.1
2016-May-18 07:14N 36°05' E 122°21'0 0.1
2016-May-18 05:26N 36°05' E 122°21'  
Track history (hours):
 
Tides and Currents Weather Stations Pressure Air Temp Water Temp Dewpoint Dewpoint Depression Visibility Wind Speed Wind Dir Waves Ship Positions

Front Circassia

Last reported at 2016-May-27 19:09 UTC. Time now 2016-May-28 04:07 UTC.
Position N 29°53' E 122°13'.

Length 333 m; draft 11 m.

Type: Tanker. MMSI: 538002584.

Date/timePositionNaut miles runAvg speedWind from/ knotsBaromVisibWave heightAir tempDewpointWater temp
2016-May-27 19:09N 29°53' E 122°13'0 0.0
2016-May-27 10:24N 29°52' E 122°13'0 0.0
2016-May-27 09:18N 29°52' E 122°13'0 0.1
2016-May-27 04:24N 29°53' E 122°13'0 0.0
2016-May-26 14:18N 29°53' E 122°12'0 0.0
2016-May-26 02:24N 29°53' E 122°12'0 0.1
2016-May-26 00:24N 29°53' E 122°13'0 0.0
2016-May-25 22:18N 29°52' E 122°13'0 0.1
2016-May-25 21:24N 29°52' E 122°13'0 0.0
2016-May-25 07:24N 29°53' E 122°13'0 0.0
2016-May-25 06:24N 29°53' E 122°13'0 0.2
2016-May-25 04:30N 29°53' E 122°13'0 0.1
2016-May-24 23:18N 29°53' E 122°13'0 0.0
2016-May-24 21:18N 29°52' E 122°13'0 0.0
2016-May-24 20:18N 29°52' E 122°13'0 0.0
2016-May-24 19:24N 29°53' E 122°13'0 0.0
2016-May-24 18:30N 29°53' E 122°13'0 0.1
2016-May-24 15:24N 29°53' E 122°13'0 0.1
2016-May-24 13:12N 29°53' E 122°12'0 0.3
2016-May-24 12:24N 29°53' E 122°13'0 0.2
2016-May-24 11:24N 29°52' E 122°13'0 0.0
2016-May-24 09:30N 29°52' E 122°13'0 0.0
2016-May-24 07:18N 29°53' E 122°13'0 0.0
2016-May-24 06:12N 29°53' E 122°13'0 0.0
2016-May-24 05:30N 29°53' E 122°13'0 0.1
2016-May-24 02:30N 29°53' E 122°13'0 0.1
2016-May-23 23:05N 29°53' E 122°13'0 0.0
2016-May-23 20:29N 29°52' E 122°13'0 0.0
2016-May-23 19:30N 29°52' E 122°13'0 0.0
2016-May-23 18:23N 29°53' E 122°13'0 0.1
2016-May-23 17:12N 29°53' E 122°13'0 0.1
2016-May-23 14:12N 29°53' E 122°13'0 0.1
2016-May-23 11:29N 29°52' E 122°13'0 0.1
2016-May-23 10:11N 29°53' E 122°13'2 2.7
2016-May-23 09:32N 29°51' E 122°12'7 7.4
2016-May-23 08:33N 29°46' E 122°18'4 0.9
2016-May-23 04:22N 29°46' E 122°23'0 0.1
2016-May-23 02:31N 29°46' E 122°23'4 4.6
2016-May-23 01:33N 29°47' E 122°28'9 8.8
2016-May-23 00:31N 29°48' E 122°38'8 8.0
2016-May-22 23:32N 29°48' E 122°47'  
2016-May-20 17:27N 35°44' E 123°03'16 8.0
2016-May-20 15:28N 35°52' E 122°46'8 8.3
2016-May-20 14:33N 35°56' E 122°39'9 8.7
2016-May-20 13:33N 36°01' E 122°29'8 8.2
2016-May-20 12:33N 36°05' E 122°21'0 0.3
2016-May-20 11:15N 36°05' E 122°21'0 0.1
2016-May-20 09:09N 36°05' E 122°21'0 0.2
2016-May-20 08:33N 36°05' E 122°21'0 0.1
2016-May-20 07:09N 36°05' E 122°21'0 0.0
2016-May-18 12:32N 36°05' E 122°21'0 0.0
2016-May-18 10:14N 36°05' E 122°21'0 0.1
2016-May-18 07:14N 36°05' E 122°21'0 0.1
2016-May-18 05:26N 36°05' E 122°21'  

Dump ship's entire track history